createdAt,value
2023-01-19T00:00:55.007Z,99763.85
2023-01-19T00:03:22.016Z,99764.42
2023-01-19T00:05:50.398Z,99775.73
2023-01-19T00:08:17.769Z,99790.83
2023-01-19T00:10:51.724Z,99795.61
2023-01-19T00:13:18.881Z,99801.71
2023-01-19T00:15:46.033Z,99793.30
2023-01-19T00:18:13.092Z,99786.94
2023-01-19T00:20:40.777Z,99785.23
2023-01-19T00:23:08.474Z,99785.25
2023-01-19T00:25:36.281Z,99775.16
2023-01-19T00:28:03.339Z,99777.55
2023-01-19T00:30:30.576Z,99770.70
2023-01-19T00:32:57.820Z,99764.91
2023-01-19T00:35:25.436Z,99772.40
2023-01-19T00:37:52.468Z,99784.93
2023-01-19T00:40:19.704Z,99782.27
2023-01-19T00:42:48.697Z,99775.43
2023-01-19T00:45:20.768Z,99777.83
2023-01-19T00:47:48.704Z,99778.16
2023-01-19T00:50:19.533Z,99779.00
2023-01-19T00:52:47.038Z,99785.91
2023-01-19T00:55:14.944Z,99799.09
2023-01-19T00:57:42.095Z,99801.30
2023-01-19T01:00:11.976Z,99801.73
2023-01-19T01:02:40.181Z,99800.66
2023-01-19T01:05:08.255Z,99811.16
2023-01-19T01:07:40.787Z,99828.73
2023-01-19T01:10:10.057Z,99837.02
2023-01-19T01:12:38.098Z,99820.35
2023-01-19T01:15:10.373Z,99810.31
2023-01-19T01:17:38.448Z,99804.34
2023-01-19T01:20:06.216Z,99813.25
2023-01-19T01:22:33.822Z,99819.55
2023-01-19T01:25:00.864Z,99819.18
2023-01-19T01:27:27.955Z,99821.01
2023-01-19T01:29:55.004Z,99823.90
2023-01-19T01:32:22.061Z,99831.57
2023-01-19T01:34:49.104Z,99835.02
2023-01-19T01:37:16.155Z,99827.77
2023-01-19T01:39:43.303Z,99819.80
2023-01-19T01:42:16.238Z,99814.81
2023-01-19T01:44:56.357Z,99815.54
2023-01-19T01:47:27.086Z,99812.99
2023-01-19T01:50:15.843Z,99813.06
2023-01-19T01:53:06.819Z,99820.34
2023-01-19T01:55:33.087Z,99815.83
2023-01-19T01:58:03.311Z,99813.96
2023-01-19T02:00:50.399Z,99816.09
2023-01-19T02:03:17.633Z,99823.45
2023-01-19T02:05:44.751Z,99821.83
2023-01-19T02:08:52.132Z,99823.92
2023-01-19T02:11:37.817Z,99835.46
2023-01-19T02:14:05.536Z,99834.15
2023-01-19T02:16:33.838Z,99847.04
2023-01-19T02:19:01.525Z,99853.06
2023-01-19T02:21:36.809Z,99857.33
2023-01-19T02:24:05.004Z,99864.87
2023-01-19T02:26:39.164Z,99871.70
2023-01-19T02:29:09.081Z,99872.90
2023-01-19T02:31:37.563Z,99871.78
2023-01-19T02:34:05.084Z,99866.73
2023-01-19T02:36:48.149Z,99858.95
2023-01-19T02:39:15.708Z,99832.04
2023-01-19T02:41:44.823Z,99817.06
2023-01-19T02:44:11.814Z,99825.60
2023-01-19T02:46:38.917Z,99833.54
2023-01-19T02:49:05.981Z,99833.77
2023-01-19T02:51:32.907Z,99835.23
2023-01-19T02:54:17.696Z,99823.45
2023-01-19T02:56:51.795Z,99831.65
2023-01-19T02:59:37.897Z,99837.73
2023-01-19T03:02:22.249Z,99833.20
2023-01-19T03:04:49.393Z,99833.49
2023-01-19T03:07:35.291Z,99826.55
2023-01-19T03:10:53.231Z,99832.64
2023-01-19T03:13:30.312Z,99842.54
2023-01-19T03:16:22.826Z,99842.27
2023-01-19T03:18:54.043Z,99841.27
2023-01-19T03:21:23.937Z,99842.41
2023-01-19T03:23:51.049Z,99847.66
2023-01-19T03:26:19.871Z,99846.95
2023-01-19T03:28:48.929Z,99849.60
2023-01-19T03:31:22.981Z,99852.14
2023-01-19T03:33:55.326Z,99851.43
2023-01-19T03:36:27.829Z,99846.48
2023-01-19T03:38:54.988Z,99844.36
2023-01-19T03:41:23.059Z,99845.54
2023-01-19T03:43:50.843Z,99845.40
2023-01-19T03:46:19.062Z,99853.15
2023-01-19T03:48:46.509Z,99859.20
2023-01-19T03:51:14.654Z,99859.67
2023-01-19T03:53:42.023Z,99859.71
2023-01-19T03:56:18.185Z,99855.09
2023-01-19T03:58:45.921Z,99848.75
2023-01-19T04:01:14.192Z,99848.44
2023-01-19T04:03:42.112Z,99848.67
2023-01-19T04:06:10.058Z,99859.70
2023-01-19T04:08:37.211Z,99864.95
2023-01-19T04:11:04.326Z,99857.80
2023-01-19T04:13:31.836Z,99869.34
2023-01-19T04:16:02.594Z,99871.58
2023-01-19T04:18:30.228Z,99874.55
2023-01-19T04:21:05.402Z,99878.48
2023-01-19T04:23:32.705Z,99880.97
2023-01-19T04:26:08.874Z,99890.69
2023-01-19T04:28:37.320Z,99891.84
2023-01-19T04:31:05.608Z,99883.13
2023-01-19T04:33:32.683Z,99881.55
2023-01-19T04:35:59.729Z,99880.34
2023-01-19T04:38:27.201Z,99883.88
2023-01-19T04:40:54.446Z,99883.83
2023-01-19T04:43:22.115Z,99880.50
2023-01-19T04:45:49.405Z,99875.91
2023-01-19T04:48:18.820Z,99878.67
2023-01-19T04:50:46.247Z,99876.86
2023-01-19T04:53:13.931Z,99875.39
2023-01-19T04:55:41.248Z,99882.52
2023-01-19T04:58:08.437Z,99885.71
2023-01-19T05:00:35.759Z,99886.83
2023-01-19T05:03:03.198Z,99881.23
2023-01-19T05:05:30.580Z,99879.54
2023-01-19T05:07:59.376Z,99880.98
2023-01-19T05:10:26.926Z,99876.32
2023-01-19T05:12:53.978Z,99871.55
2023-01-19T05:15:21.029Z,99863.73
2023-01-19T05:17:48.191Z,99866.72
2023-01-19T05:20:16.486Z,99874.69
2023-01-19T05:22:48.874Z,99870.74
2023-01-19T05:25:15.947Z,99870.36
2023-01-19T05:27:43.295Z,99870.33
2023-01-19T05:30:11.624Z,99865.52
2023-01-19T05:32:38.668Z,99860.34
2023-01-19T05:35:06.615Z,99860.95
2023-01-19T05:37:33.690Z,99859.59
2023-01-19T05:40:00.846Z,99871.62
2023-01-19T05:54:55.502Z,99873.46
2023-01-19T05:57:22.942Z,99880.95
2023-01-19T05:59:50.066Z,99890.71
2023-01-19T06:02:17.212Z,99907.09
2023-01-19T06:04:45.072Z,99918.65
2023-01-19T06:07:12.047Z,99917.48
2023-01-19T06:09:39.046Z,99907.63
2023-01-19T06:12:06.570Z,99908.08
2023-01-19T06:14:33.539Z,99882.95
2023-01-19T06:17:00.946Z,99864.35
2023-01-19T06:19:28.039Z,99854.48
2023-01-19T06:21:55.047Z,99840.73
2023-01-19T06:24:23.356Z,99826.49
2023-01-19T06:26:50.428Z,99823.35
2023-01-19T06:29:17.619Z,99832.95
2023-01-19T06:31:44.763Z,99836.91
2023-01-19T06:34:12.165Z,99833.33
2023-01-19T06:36:39.106Z,99851.77
2023-01-19T06:39:06.384Z,99855.00
2023-01-19T06:41:33.957Z,99840.66
2023-01-19T06:44:01.194Z,99834.86
2023-01-19T06:46:28.245Z,99838.80
2023-01-19T06:48:55.412Z,99832.04
2023-01-19T06:51:22.630Z,99816.48
2023-01-19T06:53:49.701Z,99814.58
2023-01-19T06:56:16.870Z,99811.61
2023-01-19T06:58:44.195Z,99809.22
2023-01-19T07:01:11.347Z,99801.36
2023-01-19T07:03:38.932Z,99794.36
2023-01-19T07:06:09.333Z,99793.48
2023-01-19T07:08:36.992Z,99800.04
2023-01-19T07:11:26.759Z,99792.86
2023-01-19T07:13:54.751Z,99796.14
2023-01-19T07:16:21.907Z,99801.77
2023-01-19T07:18:49.038Z,99808.29
2023-01-19T07:21:16.154Z,99816.26
2023-01-19T07:23:43.711Z,99820.80
2023-01-19T07:26:11.693Z,99821.27
2023-01-19T07:28:38.882Z,99818.59
2023-01-19T07:31:06.202Z,99817.02
2023-01-19T07:33:33.368Z,99815.95
2023-01-19T07:36:00.347Z,99815.29
2023-01-19T07:38:27.862Z,99816.58
2023-01-19T07:41:05.533Z,99808.42
2023-01-19T07:43:32.872Z,99802.46
2023-01-19T07:46:00.705Z,99801.56
2023-01-19T07:48:27.893Z,99812.70
2023-01-19T07:51:00.048Z,99811.98
2023-01-19T07:53:27.084Z,99805.14
2023-01-19T07:55:57.401Z,99808.71
2023-01-19T07:58:25.153Z,99809.04
2023-01-19T08:00:52.280Z,99817.91
2023-01-19T08:03:19.274Z,99828.73
2023-01-19T08:05:49.742Z,99833.07
2023-01-19T08:08:16.715Z,99843.30
2023-01-19T08:10:43.674Z,99842.48
2023-01-19T08:13:10.665Z,99845.53
2023-01-19T08:15:37.741Z,99845.95
2023-01-19T08:18:10.056Z,99851.21
2023-01-19T08:20:37.096Z,99854.10
2023-01-19T08:23:04.983Z,99848.96
2023-01-19T08:25:33.620Z,99847.45
2023-01-19T08:28:00.702Z,99849.21
2023-01-19T08:30:27.765Z,99849.45
2023-01-19T08:32:55.141Z,99853.31
2023-01-19T08:35:22.815Z,99846.34
2023-01-19T08:37:49.907Z,99847.23
2023-01-19T08:40:18.562Z,99848.58
2023-01-19T08:42:45.957Z,99846.83
2023-01-19T08:45:12.992Z,99851.91
2023-01-19T08:47:40.066Z,99839.84
2023-01-19T08:50:07.576Z,99835.94
2023-01-19T08:52:34.497Z,99839.14
2023-01-19T08:55:01.969Z,99831.62
2023-01-19T08:57:29.238Z,99824.90
2023-01-19T08:59:56.254Z,99819.01
2023-01-19T09:02:23.326Z,99814.13
2023-01-19T09:04:50.376Z,99806.79
2023-01-19T09:07:18.625Z,99809.14
2023-01-19T09:09:45.563Z,99813.75
2023-01-19T09:12:12.607Z,99813.39
2023-01-19T09:14:39.698Z,99817.61
2023-01-19T09:17:07.182Z,99810.73
2023-01-19T09:19:35.179Z,99803.92
2023-01-19T09:22:02.229Z,99796.21
2023-01-19T09:24:29.339Z,99798.45
2023-01-19T09:26:56.344Z,99799.36
2023-01-19T09:29:23.314Z,99793.77
2023-01-19T09:31:50.378Z,99789.67
2023-01-19T09:34:17.528Z,99788.92
2023-01-19T09:36:44.543Z,99789.25
2023-01-19T09:39:11.700Z,99783.96
2023-01-19T09:41:39.263Z,99778.69
2023-01-19T09:44:06.204Z,99773.35
2023-01-19T09:46:40.242Z,99771.54
2023-01-19T09:49:37.214Z,99768.71
2023-01-19T09:52:04.196Z,99754.74
2023-01-19T09:54:44.624Z,99755.27
2023-01-19T09:57:12.275Z,99752.02
2023-01-19T09:59:39.374Z,99742.04
2023-01-19T10:02:42.069Z,99734.83
2023-01-19T10:05:26.035Z,99731.55
2023-01-19T10:08:02.588Z,99734.14
2023-01-19T10:10:31.556Z,99728.08
2023-01-19T10:31:32.936Z,99696.27
2023-01-19T10:34:00.155Z,99699.50
2023-01-19T10:36:37.239Z,99696.26
2023-01-19T10:39:06.084Z,99694.36
2023-01-19T10:41:44.499Z,99689.76
2023-01-19T10:44:12.211Z,99687.77
2023-01-19T10:46:47.011Z,99681.23
2023-01-19T10:49:25.919Z,99673.71
2023-01-19T10:51:53.055Z,99671.83
2023-01-19T10:54:21.111Z,99680.48
2023-01-19T10:57:08.445Z,99679.03
2023-01-19T10:59:51.291Z,99683.27
2023-01-19T11:02:27.863Z,99676.27
2023-01-19T11:04:57.060Z,99668.11
2023-01-19T11:07:33.739Z,99660.32
2023-01-19T11:10:16.063Z,99653.49
2023-01-19T11:12:44.706Z,99647.80
2023-01-19T11:15:25.957Z,99645.60
2023-01-19T11:17:53.751Z,99640.23
2023-01-19T11:20:26.182Z,99639.98
2023-01-19T11:23:21.848Z,99637.05
2023-01-19T11:25:49.972Z,99627.98
2023-01-19T11:28:42.977Z,99628.24
2023-01-19T11:31:11.296Z,99626.46
2023-01-19T11:33:42.163Z,99620.86
2023-01-19T11:36:17.669Z,99615.59
2023-01-19T11:38:50.764Z,99613.95
2023-01-19T11:41:26.826Z,99607.79
2023-01-19T11:43:58.368Z,99612.15
2023-01-19T11:46:29.614Z,99610.31
2023-01-19T11:49:02.292Z,99605.34
2023-01-19T11:51:34.885Z,99609.30
2023-01-19T11:54:01.840Z,99608.96
2023-01-19T11:56:29.215Z,99606.94
2023-01-19T11:58:56.303Z,99613.10
2023-01-19T12:01:28.245Z,99616.66
2023-01-19T12:04:14.389Z,99623.19
2023-01-19T12:06:44.667Z,99625.05
2023-01-19T12:09:13.149Z,99616.62
2023-01-19T12:11:45.421Z,99622.15
2023-01-19T12:14:28.805Z,99630.36
2023-01-19T12:16:58.034Z,99630.36
2023-01-19T12:19:27.867Z,99625.98
2023-01-19T12:21:54.831Z,99625.53
2023-01-19T12:24:37.710Z,99628.77
2023-01-19T12:27:18.010Z,99628.02
2023-01-19T12:29:45.718Z,99621.17
2023-01-19T12:32:18.610Z,99619.30
2023-01-19T12:34:49.257Z,99614.21
2023-01-19T12:37:31.587Z,99620.67
2023-01-19T12:40:22.340Z,99623.23
2023-01-19T12:43:08.813Z,99624.16
2023-01-19T12:45:36.707Z,99629.28
2023-01-19T12:48:04.239Z,99640.72
2023-01-19T12:50:38.129Z,99649.49
2023-01-19T12:53:08.596Z,99639.22
2023-01-19T12:55:37.153Z,99635.67
2023-01-19T12:58:18.138Z,99639.52
2023-01-19T13:00:46.081Z,99641.30
2023-01-19T13:03:19.215Z,99641.08
2023-01-19T13:05:52.722Z,99640.64
2023-01-19T13:08:24.659Z,99642.73
2023-01-19T13:11:03.598Z,99640.97
2023-01-19T13:13:31.202Z,99639.15
2023-01-19T13:16:30.306Z,99635.30
2023-01-19T13:19:01.534Z,99634.98
2023-01-19T13:21:44.724Z,99638.42
2023-01-19T13:24:16.754Z,99646.41
2023-01-19T13:26:49.880Z,99645.15
2023-01-19T13:29:38.258Z,99647.31
2023-01-19T13:32:16.250Z,99647.05
2023-01-19T13:34:48.214Z,99654.77
2023-01-19T13:37:15.890Z,99653.21
2023-01-19T13:39:44.584Z,99654.44
2023-01-19T13:55:13.069Z,99658.42
2023-01-19T13:57:41.343Z,99660.52
2023-01-19T14:00:21.073Z,99659.23
2023-01-19T14:03:13.032Z,99659.63
2023-01-19T14:05:41.231Z,99661.90
2023-01-19T14:08:08.487Z,99664.61
2023-01-19T14:10:40.527Z,99664.88
2023-01-19T14:13:18.679Z,99662.48
2023-01-19T14:15:46.781Z,99663.09
2023-01-19T14:18:16.717Z,99664.39
2023-01-19T14:21:00.858Z,99667.34
2023-01-19T14:24:07.299Z,99665.71
2023-01-19T14:26:36.809Z,99664.67
2023-01-19T14:29:29.205Z,99663.45
2023-01-19T14:32:16.421Z,99666.38
2023-01-19T14:35:05.195Z,99671.92
2023-01-19T14:37:46.763Z,99680.82
2023-01-19T14:40:21.034Z,99685.66
2023-01-19T14:42:59.617Z,99686.23
2023-01-19T14:45:40.874Z,99682.71
2023-01-19T14:48:18.403Z,99682.90
2023-01-19T14:50:57.658Z,99681.64
2023-01-19T14:53:37.913Z,99689.54
2023-01-19T14:56:05.409Z,99688.67
2023-01-19T14:58:34.649Z,99685.69
2023-01-19T15:01:01.505Z,99687.88
2023-01-19T15:03:44.750Z,99684.71
2023-01-19T15:06:17.129Z,99684.13
2023-01-19T15:08:43.977Z,99671.27
2023-01-19T15:11:32.038Z,99671.91
2023-01-19T15:13:59.202Z,99672.20
2023-01-19T15:16:26.749Z,99671.03
2023-01-19T15:18:53.656Z,99667.20
2023-01-19T15:21:23.164Z,99664.04
2023-01-19T15:23:50.037Z,99659.67
2023-01-19T15:26:21.242Z,99653.35
2023-01-19T15:28:48.754Z,99652.95
2023-01-19T15:31:19.748Z,99652.77
2023-01-19T15:33:46.647Z,99650.79
2023-01-19T15:36:17.017Z,99654.10
2023-01-19T15:38:45.312Z,99658.95
2023-01-19T15:41:23.020Z,99656.01
2023-01-19T15:43:50.221Z,99647.92
2023-01-19T15:46:18.584Z,99652.36
2023-01-19T15:48:45.403Z,99654.08
2023-01-19T15:51:16.754Z,99650.31
2023-01-19T15:53:43.731Z,99645.35
2023-01-19T15:56:15.108Z,99645.80
2023-01-19T15:58:42.535Z,99652.80
2023-01-19T16:01:21.150Z,99652.41
2023-01-19T16:03:48.144Z,99648.27
2023-01-19T16:06:15.813Z,99647.55
2023-01-19T16:08:42.687Z,99648.09
2023-01-19T16:11:13.560Z,99649.96
2023-01-19T16:13:40.378Z,99649.67
2023-01-19T16:16:09.666Z,99655.11
2023-01-19T16:18:36.513Z,99663.09
2023-01-19T16:21:03.336Z,99664.00
2023-01-19T16:23:30.185Z,99662.61
2023-01-19T16:26:04.411Z,99668.35
2023-01-19T16:28:31.225Z,99670.82
2023-01-19T16:30:58.034Z,99669.16
2023-01-19T16:33:24.774Z,99666.94
2023-01-19T16:35:51.661Z,99666.77
2023-01-19T16:38:18.501Z,99664.46
2023-01-19T16:40:45.465Z,99664.02
2023-01-19T16:43:12.809Z,99660.23
2023-01-19T16:45:57.594Z,99658.91
2023-01-19T16:48:25.099Z,99658.77
2023-01-19T16:51:04.734Z,99661.07
2023-01-19T16:53:32.394Z,99667.50
2023-01-19T16:55:59.252Z,99670.78
2023-01-19T16:58:26.079Z,99667.51
2023-01-19T17:00:52.914Z,99665.98
2023-01-19T17:03:20.243Z,99660.96
2023-01-19T17:05:50.513Z,99662.17
2023-01-19T17:08:19.157Z,99663.31
2023-01-19T17:10:46.923Z,99662.35
2023-01-19T17:13:13.719Z,99657.23
2023-01-19T17:15:40.535Z,99661.21
2023-01-19T17:18:07.561Z,99657.55
2023-01-19T17:20:34.432Z,99662.18
2023-01-19T17:23:01.212Z,99662.48
2023-01-19T17:25:28.107Z,99673.69
2023-01-19T17:27:55.024Z,99678.36
2023-01-19T17:30:21.841Z,99679.86
2023-01-19T17:32:48.653Z,99679.59
2023-01-19T17:35:15.469Z,99672.52
2023-01-19T17:37:42.290Z,99674.19
2023-01-19T17:40:09.788Z,99677.95
2023-01-19T17:42:41.393Z,99679.69
2023-01-19T17:45:10.393Z,99679.48
2023-01-19T17:47:38.027Z,99677.90
2023-01-19T17:50:05.186Z,99673.65
2023-01-19T17:52:32.248Z,99673.09
2023-01-19T17:54:59.239Z,99677.65
2023-01-19T17:57:26.439Z,99676.96
2023-01-19T17:59:53.365Z,99675.10
2023-01-19T18:02:23.809Z,99674.95
2023-01-19T18:04:52.061Z,99678.78
2023-01-19T18:07:19.230Z,99678.30
2023-01-19T18:09:46.198Z,99678.45
2023-01-19T18:12:13.023Z,99677.24
2023-01-19T18:14:40.620Z,99681.02
2023-01-19T18:17:07.863Z,99677.28
2023-01-19T18:19:34.893Z,99673.52
2023-01-19T18:22:02.465Z,99672.35
2023-01-19T18:24:29.566Z,99673.05
2023-01-19T18:26:56.467Z,99677.88
2023-01-19T18:29:23.405Z,99679.38
2023-01-19T18:31:51.082Z,99682.05
2023-01-19T18:34:18.307Z,99679.95
2023-01-19T18:36:45.170Z,99671.73
2023-01-19T18:39:12.658Z,99678.52
2023-01-19T18:41:42.372Z,99676.92
2023-01-19T18:44:09.621Z,99681.27
2023-01-19T18:46:37.599Z,99683.45
2023-01-19T18:49:04.769Z,99682.56
2023-01-19T18:51:31.591Z,99679.30
2023-01-19T18:53:58.750Z,99682.64
2023-01-19T18:56:25.656Z,99686.27
2023-01-19T18:58:52.893Z,99684.36
2023-01-19T19:01:22.828Z,99686.19
2023-01-19T19:03:50.181Z,99684.64
2023-01-19T19:06:20.170Z,99690.95
2023-01-19T19:08:48.889Z,99689.08
2023-01-19T19:11:15.855Z,99690.98
2023-01-19T19:13:42.861Z,99693.09
2023-01-19T19:16:10.536Z,99701.26
2023-01-19T19:18:37.699Z,99700.73
2023-01-19T19:21:09.079Z,99704.42
2023-01-19T19:23:36.791Z,99703.75
2023-01-19T19:26:05.111Z,99706.05
2023-01-19T19:28:32.877Z,99702.80
2023-01-19T19:31:11.015Z,99707.19
2023-01-19T19:33:38.427Z,99703.30
2023-01-19T19:36:05.555Z,99703.46
2023-01-19T19:38:32.772Z,99706.61
2023-01-19T19:41:04.296Z,99710.16
2023-01-19T19:43:32.371Z,99713.71
2023-01-19T19:46:00.314Z,99716.25
2023-01-19T19:48:27.608Z,99712.41
2023-01-19T19:50:54.826Z,99716.42
2023-01-19T19:53:22.350Z,99719.41
2023-01-19T19:55:57.505Z,99718.77
2023-01-19T19:58:25.075Z,99725.18
2023-01-19T20:00:52.017Z,99723.33
2023-01-19T20:03:19.393Z,99720.43
2023-01-19T20:05:46.625Z,99719.33
2023-01-19T20:08:13.432Z,99726.41
2023-01-19T20:10:40.209Z,99728.94
2023-01-19T20:13:10.097Z,99731.92
2023-01-19T20:15:37.935Z,99728.46
2023-01-19T20:18:05.720Z,99727.98
2023-01-19T20:20:33.561Z,99725.52
2023-01-19T20:23:00.966Z,99727.50
2023-01-19T20:25:27.970Z,99728.84
2023-01-19T20:27:55.245Z,99731.45
2023-01-19T20:30:22.184Z,99736.48
2023-01-19T20:32:51.160Z,99739.02
2023-01-19T20:35:18.364Z,99742.61
2023-01-19T20:37:45.276Z,99740.64
2023-01-19T20:40:12.255Z,99744.50
2023-01-19T20:42:41.064Z,99749.57
2023-01-19T20:45:08.140Z,99746.00
2023-01-19T20:47:34.994Z,99749.41
2023-01-19T20:50:02.258Z,99752.80
2023-01-19T20:52:29.361Z,99756.20
2023-01-19T20:54:56.353Z,99757.23
2023-01-19T20:57:23.424Z,99756.59
2023-01-19T20:59:50.420Z,99763.58
2023-01-19T21:02:17.336Z,99767.64
2023-01-19T21:04:44.483Z,99770.30
2023-01-19T21:07:11.585Z,99772.16
2023-01-19T21:09:39.593Z,99772.23
2023-01-19T21:12:09.285Z,99774.41
2023-01-19T21:14:36.202Z,99773.50
2023-01-19T21:17:03.208Z,99779.52
2023-01-19T21:19:30.157Z,99780.49
2023-01-19T21:21:57.060Z,99785.02
2023-01-19T21:24:24.074Z,99789.23
2023-01-19T21:26:50.951Z,99788.48
2023-01-19T21:29:18.222Z,99791.77
2023-01-19T21:31:45.394Z,99791.88
2023-01-19T21:34:13.772Z,99791.66
2023-01-19T21:36:40.628Z,99795.01
2023-01-19T21:39:08.587Z,99798.52
2023-01-19T21:41:35.488Z,99796.80
2023-01-19T21:44:02.317Z,99796.62
2023-01-19T21:46:30.097Z,99800.27
2023-01-19T21:48:57.688Z,99793.59
2023-01-19T21:51:24.710Z,99793.89
2023-01-19T22:04:44.031Z,99800.90
2023-01-19T22:07:11.198Z,99807.52
2023-01-19T22:09:39.210Z,99808.08
2023-01-19T22:12:06.516Z,99810.76
2023-01-19T22:14:33.436Z,99810.70
2023-01-19T22:17:00.464Z,99806.64
2023-01-19T22:19:28.121Z,99813.85
2023-01-19T22:21:55.057Z,99816.89
2023-01-19T22:24:24.070Z,99815.79
2023-01-19T22:26:51.100Z,99814.17
2023-01-19T22:29:18.035Z,99817.73
2023-01-19T22:31:46.359Z,99825.52
2023-01-19T22:34:13.853Z,99827.23
2023-01-19T22:36:40.912Z,99826.65
2023-01-19T22:39:09.695Z,99827.73
2023-01-19T22:41:44.521Z,99830.59
2023-01-19T22:44:17.535Z,99835.23
2023-01-19T22:46:44.573Z,99840.25
2023-01-19T22:49:14.206Z,99843.15
2023-01-19T22:51:41.342Z,99846.48
2023-01-19T22:54:08.442Z,99846.84
2023-01-19T22:56:36.593Z,99839.39
2023-01-19T22:59:04.022Z,99842.41
2023-01-19T23:01:37.128Z,99842.15
2023-01-19T23:04:04.735Z,99848.27
2023-01-19T23:06:33.760Z,99849.67
2023-01-19T23:09:02.106Z,99857.34
2023-01-19T23:11:37.163Z,99861.91
2023-01-19T23:14:05.208Z,99859.46
2023-01-19T23:16:32.185Z,99852.05
2023-01-19T23:18:59.215Z,99856.80
2023-01-19T23:21:28.595Z,99861.27
2023-01-19T23:23:56.944Z,99864.70
2023-01-19T23:26:24.410Z,99862.96
2023-01-19T23:28:59.342Z,99870.95
2023-01-19T23:31:27.235Z,99879.34
2023-01-19T23:33:55.919Z,99876.02
2023-01-19T23:36:23.958Z,99873.09
2023-01-19T23:38:56.066Z,99872.78
2023-01-19T23:41:23.019Z,99874.73
2023-01-19T23:43:52.745Z,99878.46
2023-01-19T23:46:19.996Z,99874.76
2023-01-19T23:48:47.370Z,99875.32
2023-01-19T23:51:16.753Z,99874.37
2023-01-19T23:53:43.820Z,99874.95
2023-01-19T23:56:14.823Z,99875.63
2023-01-19T23:58:42.038Z,99884.02
